Time;durP1;ratioP1;P1;durP2;ratioP2;P2;SDS_P1;SDS_P2;PMS_P1;PMS_P2;Temp;Humidity;BMP_temperature;BMP_pressure;BME280_temperature;BME280_humidity;BME280_pressure;Samples;Min_cycle;Max_cycle;Signal;HPM_P1;HPM_P2
2021/09/24 00:00:56;;;;;;;8.50;7.17;;;;;;;9.12;75.39;98556.51;1759163;80;20953;-33
2021/09/24 00:03:25;;;;;;;;;;;;;;;9.17;75.32;98551.34;1773826;80;21013;-34
2021/09/24 00:05:54;;;;;;;10.58;8.00;;;;;;;9.16;75.44;98547.86;1751612;80;20126;-34
2021/09/24 00:08:21;;;;;;;9.70;7.25;;;;;;;9.02;75.96;98550.41;1751148;82;21136;-33
2021/09/24 00:10:48;;;;;;;13.85;8.03;;;;;;;9.02;76.06;98538.81;1754303;80;21013;-34
2021/09/24 00:13:16;;;;;;;8.85;7.62;;;;;;;9.06;76.10;98532.30;1761230;80;21583;-34
2021/09/24 00:15:44;;;;;;;13.32;8.28;;;;;;;9.13;76.08;98527.55;1745893;80;21030;-34
2021/09/24 00:18:12;;;;;;;14.35;8.00;;;;;;;9.15;76.16;98528.72;1751178;82;21041;-34
2021/09/24 00:20:40;;;;;;;11.30;7.87;;;;;;;9.14;76.24;98514.23;1751186;82;21018;-34
2021/09/24 00:23:08;;;;;;;9.85;7.90;;;;;;;9.15;76.23;98515.20;1751383;80;21463;-34
2021/09/24 00:25:35;;;;;;;12.37;8.10;;;;;;;9.22;76.21;98508.31;1751090;82;20986;-33
2021/09/24 00:28:05;;;;;;;11.15;8.88;;;;;;;9.24;76.24;98500.05;1751238;81;20947;-33
2021/09/24 00:30:32;;;;;;;10.13;8.75;;;;;;;9.24;76.32;98489.23;1753465;80;21559;-33
2021/09/24 00:32:59;;;;;;;10.03;8.93;;;;;;;9.24;76.38;98484.39;1751639;80;21821;-33
2021/09/24 00:35:25;;;;;;;12.70;8.93;;;;;;;9.25;76.54;98489.98;1751260;82;21009;-33
2021/09/24 00:37:52;;;;;;;14.35;9.50;;;;;;;9.31;76.37;98480.39;1751327;82;21128;-33
2021/09/24 00:40:18;;;;;;;12.00;9.33;;;;;;;9.34;76.36;98476.97;1760263;80;21001;-33
2021/09/24 00:42:45;;;;;;;13.35;9.40;;;;;;;9.37;76.38;98472.16;1782524;80;21516;-33
2021/09/24 00:45:12;;;;;;;15.15;9.58;;;;;;;9.38;76.47;98468.30;1782161;80;21147;-34
2021/09/24 00:47:38;;;;;;;11.03;8.75;;;;;;;9.37;76.56;98462.69;1779794;80;21012;-33
2021/09/24 00:50:07;;;;;;;11.48;8.93;;;;;;;9.43;76.56;98463.91;1782035;80;20941;-34
2021/09/24 00:52:33;;;;;;;10.70;9.08;;;;;;;9.46;76.48;98466.63;1782355;80;21830;-33
2021/09/24 00:55:00;;;;;;;15.85;9.80;;;;;;;9.47;76.53;98459.30;1782197;80;21028;-33
2021/09/24 00:57:26;;;;;;;12.10;8.18;;;;;;;9.46;76.46;98450.41;1770363;80;21102;-33
2021/09/24 00:59:54;;;;;;;10.85;8.73;;;;;;;9.49;76.49;98448.29;1722142;82;20982;-34
2021/09/24 01:02:21;;;;;;;12.65;9.28;;;;;;;9.53;76.44;98436.95;1745354;82;21520;-33
2021/09/24 01:04:47;;;;;;;14.85;9.78;;;;;;;9.56;76.46;98438.89;1761747;80;20993;-34
2021/09/24 01:07:14;;;;;;;11.50;10.15;;;;;;;9.56;76.51;98442.17;1772521;80;21037;-33
2021/09/24 01:09:40;;;;;;;12.20;8.90;;;;;;;9.54;76.58;98437.13;1751117;82;21076;-34
2021/09/24 01:12:09;;;;;;;11.28;8.65;;;;;;;9.56;76.63;98430.78;1745660;82;20973;-34
2021/09/24 01:14:36;;;;;;;11.35;9.15;;;;;;;9.59;76.67;98421.12;1722944;82;21042;-34
2021/09/24 01:17:04;;;;;;;12.75;9.20;;;;;;;9.61;76.69;98422.88;1698544;83;21049;-33
2021/09/24 01:19:32;;;;;;;13.90;9.23;;;;;;;9.59;76.89;98411.64;1698533;83;21088;-33
2021/09/24 01:21:59;;;;;;;13.43;9.48;;;;;;;9.57;76.98;98410.69;1698947;84;21514;-34
2021/09/24 01:24:26;;;;;;;12.30;9.33;;;;;;;9.58;77.02;98400.64;1717101;82;21029;-34
2021/09/24 01:26:55;;;;;;;10.32;8.88;;;;;;;9.56;77.25;98386.70;1748502;82;21008;-33
2021/09/24 01:29:26;;;;;;;12.20;9.85;;;;;;;9.55;77.38;98383.22;1748703;82;21008;-34
2021/09/24 01:31:53;;;;;;;12.05;10.08;;;;;;;9.53;77.66;98379.34;1748672;82;21033;-34
2021/09/24 01:34:20;;;;;;;10.90;8.10;;;;;;;9.53;77.69;98380.13;1747319;82;21158;-34
2021/09/24 01:36:46;;;;;;;11.12;8.58;;;;;;;9.58;77.53;98370.87;1748468;82;21495;-34
2021/09/24 01:39:14;;;;;;;11.50;8.75;;;;;;;9.61;77.64;98370.12;1748388;82;21045;-34
2021/09/24 01:41:47;;;;;;;13.20;9.43;;;;;;;9.62;77.65;98368.19;1748717;82;21008;-33
2021/09/24 01:44:14;;;;;;;12.35;9.85;;;;;;;9.62;77.78;98368.97;1747519;82;21029;-33
2021/09/24 01:46:45;;;;;;;12.03;8.90;;;;;;;9.63;77.75;98360.28;1748420;82;21198;-33
2021/09/24 01:49:13;;;;;;;12.33;9.65;;;;;;;9.66;77.77;98356.81;1748394;82;20979;-34
2021/09/24 01:51:42;;;;;;;17.37;9.95;;;;;;;9.65;77.82;98345.20;1748479;82;21585;-34
2021/09/24 01:54:12;;;;;;;12.98;9.15;;;;;;;9.63;77.97;98338.06;1738673;82;21000;-34
2021/09/24 01:56:38;;;;;;;11.12;9.03;;;;;;;9.61;78.07;98341.70;1698545;84;21029;-34
2021/09/24 01:59:05;;;;;;;12.40;9.18;;;;;;;9.65;78.06;98330.32;1699058;82;21184;-34
2021/09/24 02:01:32;;;;;;;12.50;9.40;;;;;;;9.68;77.97;98328.23;1698487;84;20980;-33
2021/09/24 02:04:02;;;;;;;12.98;9.05;;;;;;;9.67;78.11;98332.08;1704880;82;21724;-34
2021/09/24 02:06:30;;;;;;;11.10;9.25;;;;;;;9.68;78.10;98315.27;1748300;82;21571;-34
2021/09/24 02:08:56;;;;;;;13.53;9.80;;;;;;;9.69;78.06;98302.70;1742659;82;21086;-34
2021/09/24 02:11:24;;;;;;;11.75;9.78;;;;;;;9.71;78.10;98305.03;1742754;82;21975;-34
2021/09/24 02:13:52;;;;;;;14.07;9.03;;;;;;;9.68;78.26;98297.68;1680057;83;20985;-34
2021/09/24 02:16:20;;;;;;;12.23;9.75;;;;;;;9.63;78.38;98292.05;1712652;83;20994;-34
2021/09/24 02:18:46;;;;;;;13.13;9.63;;;;;;;9.69;78.36;98280.27;1713018;83;21067;-34
2021/09/24 02:21:14;;;;;;;13.13;8.95;;;;;;;9.71;78.36;98278.75;1712799;83;21055;-34
2021/09/24 02:23:42;;;;;;;10.80;9.70;;;;;;;9.72;78.44;98283.59;1704070;83;21915;-34
2021/09/24 02:26:10;;;;;;;11.03;8.98;;;;;;;9.42;78.38;98224.30;1712225;83;21022;-33
2021/09/24 02:28:37;;;;;;;12.07;9.53;;;;;;;9.76;78.33;98279.73;1687532;85;21645;-34
2021/09/24 02:31:09;;;;;;;12.33;10.05;;;;;;;9.80;78.15;98267.56;1687361;85;21106;-34
2021/09/24 02:33:38;;;;;;;11.22;9.40;;;;;;;9.78;78.32;98260.42;1687306;85;21019;-34
2021/09/24 02:36:05;;;;;;;13.15;9.75;;;;;;;9.76;78.39;98252.67;1687202;85;21155;-34
2021/09/24 02:38:32;;;;;;;11.15;9.55;;;;;;;9.77;78.41;98246.69;1687649;85;20973;-34
2021/09/24 02:41:00;;;;;;;14.35;10.50;;;;;;;9.78;78.32;98242.22;1687432;84;21532;-34
2021/09/24 02:43:26;;;;;;;13.00;10.40;;;;;;;9.77;78.44;98246.11;1748802;82;20960;-34
2021/09/24 02:45:53;;;;;;;12.98;9.68;;;;;;;9.74;78.59;98240.66;1748427;82;21068;-34
2021/09/24 02:48:20;;;;;;;11.48;9.35;;;;;;;9.73;78.70;98237.78;1748455;82;21138;-34
2021/09/24 02:50:48;;;;;;;13.05;10.03;;;;;;;9.76;78.59;98230.24;1748320;82;21563;-34
2021/09/24 02:53:16;;;;;;;12.47;9.55;;;;;;;9.78;78.58;98234.10;1748519;82;21008;-34
2021/09/24 02:55:42;;;;;;;14.90;9.93;;;;;;;9.76;78.55;98221.55;1748384;82;21523;-34
2021/09/24 02:58:11;;;;;;;13.58;9.28;;;;;;;9.71;78.72;98219.20;1748542;82;20952;-34
2021/09/24 03:00:37;;;;;;;11.03;9.08;;;;;;;9.72;78.68;98207.23;1748542;82;21146;-34
2021/09/24 03:03:04;;;;;;;11.90;9.48;;;;;;;9.74;78.67;98200.84;1748670;82;21040;-34
2021/09/24 03:05:31;;;;;;;16.30;10.32;;;;;;;9.77;78.67;98202.80;1748423;82;21484;-34
2021/09/24 03:07:59;;;;;;;11.38;9.33;;;;;;;9.77;78.68;98190.62;1748585;82;20949;-33
2021/09/24 03:10:27;;;;;;;14.25;9.78;;;;;;;9.75;78.73;98192.92;1748780;82;21503;-34
2021/09/24 03:12:56;;;;;;;11.35;8.80;;;;;;;9.76;78.85;98191.00;1737517;82;21050;-34
2021/09/24 03:15:22;;;;;;;12.98;9.00;;;;;;;9.80;78.78;98182.30;1735724;82;21570;-34
2021/09/24 03:17:50;;;;;;;12.03;9.93;;;;;;;9.82;78.81;98180.78;1748539;82;20941;-34
2021/09/24 03:20:17;;;;;;;11.57;9.05;;;;;;;9.80;78.79;98179.02;1748654;82;20953;-33
2021/09/24 03:22:45;;;;;;;13.55;9.03;;;;;;;9.78;78.95;98175.16;1748582;82;20965;-33
2021/09/24 03:25:12;;;;;;;12.37;9.25;;;;;;;9.81;78.84;98169.75;1735292;82;21537;-34
2021/09/24 03:27:40;;;;;;;12.88;9.70;;;;;;;9.85;78.79;98157.00;1718811;83;21058;-34
2021/09/24 03:30:09;;;;;;;11.48;8.00;;;;;;;9.81;78.85;98146.75;1740660;82;21602;-34
2021/09/24 03:32:36;;;;;;;12.20;9.60;;;;;;;9.79;79.05;98149.05;1748612;82;21053;-34
2021/09/24 03:35:05;;;;;;;9.55;8.23;;;;;;;9.80;78.89;98142.48;1747135;82;20961;-34
2021/09/24 03:37:34;;;;;;;12.85;10.05;;;;;;;9.82;78.93;98142.89;1748742;82;21275;-34
2021/09/24 03:40:03;;;;;;;13.83;9.43;;;;;;;9.81;78.97;98127.80;1748648;82;20973;-34
2021/09/24 03:42:30;;;;;;;10.93;8.05;;;;;;;9.81;79.14;98128.38;1748578;82;21599;-34
2021/09/24 03:44:56;;;;;;;10.63;8.30;;;;;;;9.82;79.09;98121.23;1739734;82;21092;-34
2021/09/24 03:47:23;;;;;;;11.90;8.75;;;;;;;9.87;78.96;98104.61;1719155;83;21076;-34
2021/09/24 03:49:50;;;;;;;10.88;8.30;;;;;;;9.87;78.91;98105.97;1718799;83;21147;-34
2021/09/24 03:52:17;;;;;;;12.33;8.60;;;;;;;9.84;79.01;98099.95;1718930;83;20973;-34
2021/09/24 03:54:43;;;;;;;12.45;8.95;;;;;;;9.82;79.02;98095.52;1719210;82;20981;-34
2021/09/24 03:57:10;;;;;;;9.33;7.70;;;;;;;9.84;79.12;98085.64;1719110;83;21025;-34
2021/09/24 03:59:38;;;;;;;12.37;8.33;;;;;;;9.85;79.03;98082.56;1718663;83;21076;-34
2021/09/24 04:02:05;;;;;;;11.00;8.40;;;;;;;9.86;79.11;98061.68;1718724;83;21159;-34
2021/09/24 04:04:32;;;;;;;10.45;8.53;;;;;;;9.85;79.12;98059.55;1722192;82;20977;-34
2021/09/24 04:06:58;;;;;;;11.25;7.65;;;;;;;9.82;79.20;98063.03;1742438;82;21551;-34
2021/09/24 04:09:24;;;;;;;12.50;8.60;;;;;;;9.83;79.18;98057.80;1718800;83;21017;-34
2021/09/24 04:11:52;;;;;;;9.93;7.85;;;;;;;9.84;79.26;98042.33;1719332;82;21598;-34
2021/09/24 04:14:20;;;;;;;11.75;7.83;;;;;;;9.82;79.36;98045.44;1740276;80;20980;-34
2021/09/24 04:16:47;;;;;;;12.88;8.15;;;;;;;9.81;79.33;98039.83;1743207;82;21494;-34
2021/09/24 04:19:15;;;;;;;10.90;7.55;;;;;;;9.82;79.31;98037.33;1743310;82;20935;-34
2021/09/24 04:21:43;;;;;;;10.32;8.15;;;;;;;9.84;79.26;98022.81;1743229;82;20991;-34
2021/09/24 04:24:11;;;;;;;8.88;7.22;;;;;;;9.79;79.52;98017.78;1743217;82;21019;-34
2021/09/24 04:26:37;;;;;;;10.18;7.80;;;;;;;9.75;79.75;98008.11;1733363;80;21090;-34
2021/09/24 04:29:07;;;;;;;8.90;7.47;;;;;;;9.78;79.71;98010.06;1736127;80;20986;-33
2021/09/24 04:31:35;;;;;;;9.48;8.13;;;;;;;9.79;79.73;98010.23;1743229;82;20998;-34
2021/09/24 04:34:02;;;;;;;9.63;7.33;;;;;;;9.78;79.83;98006.00;1743209;82;20924;-33
2021/09/24 04:36:30;;;;;;;9.73;7.65;;;;;;;9.75;79.94;97988.59;1743641;80;21541;-34
2021/09/24 04:38:57;;;;;;;10.65;7.42;;;;;;;9.81;79.77;97984.92;1743417;82;21790;-34
2021/09/24 04:41:24;;;;;;;9.63;7.53;;;;;;;9.83;79.76;97990.70;1743067;82;20978;-34
2021/09/24 04:43:51;;;;;;;9.20;6.83;;;;;;;9.78;79.90;98000.59;1743244;82;21450;-34
2021/09/24 04:46:18;;;;;;;8.73;6.87;;;;;;;9.77;80.05;97971.40;1767611;80;20992;-34
2021/09/24 04:48:44;;;;;;;10.55;7.05;;;;;;;9.83;79.98;97969.83;1773836;80;21020;-33
2021/09/24 04:51:12;;;;;;;10.23;6.78;;;;;;;9.85;80.04;97960.75;1773886;80;21141;-34
2021/09/24 04:53:39;;;;;;;7.47;6.67;;;;;;;9.83;80.15;97946.05;1773746;80;21519;-34
2021/09/24 04:56:06;;;;;;;8.50;6.40;;;;;;;9.82;80.24;97943.95;1751862;80;20969;-34
2021/09/24 04:58:33;;;;;;;12.35;7.47;;;;;;;9.88;80.15;97941.02;1743378;80;21498;-34
2021/09/24 05:00:59;;;;;;;7.50;6.35;;;;;;;9.88;80.09;97934.83;1743676;82;20998;-34
2021/09/24 05:03:26;;;;;;;8.40;6.83;;;;;;;9.87;80.09;97929.24;1743343;82;21154;-34
2021/09/24 05:05:52;;;;;;;11.25;7.28;;;;;;;9.89;80.03;97921.49;1761812;80;21524;-33
2021/09/24 05:08:21;;;;;;;10.23;6.67;;;;;;;9.89;80.07;97921.49;1749879;80;20945;-33
2021/09/24 05:10:49;;;;;;;7.72;6.58;;;;;;;9.88;80.25;97919.94;1743034;82;21535;-34
2021/09/24 05:13:17;;;;;;;8.75;6.78;;;;;;;9.88;80.27;97918.01;1743198;82;20883;-34
2021/09/24 05:15:45;;;;;;;10.30;6.85;;;;;;;9.90;80.30;97902.16;1759829;80;21932;-33
2021/09/24 05:18:13;;;;;;;9.83;7.35;;;;;;;9.94;80.26;97896.16;1773770;80;20930;-33
2021/09/24 05:20:42;;;;;;;7.33;6.40;;;;;;;9.91;80.35;97896.95;1773844;80;20922;-34
2021/09/24 05:23:10;;;;;;;10.70;6.62;;;;;;;9.89;80.56;97896.55;1773978;80;20973;-33
2021/09/24 05:25:37;;;;;;;7.37;6.40;;;;;;;9.95;80.41;97888.23;1767417;80;21590;-34
2021/09/24 05:28:04;;;;;;;11.60;6.42;;;;;;;9.96;80.42;97891.72;1773673;80;21209;-33
2021/09/24 05:30:30;;;;;;;11.22;6.08;;;;;;;9.97;80.48;97881.83;1773842;80;21020;-33
2021/09/24 05:32:59;;;;;;;10.30;6.33;;;;;;;10.01;80.49;97881.84;1768617;80;20968;-34
2021/09/24 05:35:26;;;;;;;9.28;7.05;;;;;;;10.01;80.61;97872.36;1743309;80;21034;-34
2021/09/24 05:37:53;;;;;;;7.85;6.05;;;;;;;9.99;80.62;97882.22;1743204;82;21000;-34
2021/09/24 05:40:19;;;;;;;7.28;5.78;;;;;;;9.98;80.73;97878.54;1743331;82;21149;-34
2021/09/24 05:42:46;;;;;;;8.80;5.95;;;;;;;10.01;80.70;97856.89;1743706;80;21616;-33
2021/09/24 05:45:14;;;;;;;9.08;6.50;;;;;;;10.07;80.58;97865.97;1743207;82;20951;-33
2021/09/24 05:47:42;;;;;;;7.90;5.95;;;;;;;10.04;80.58;97876.41;1743126;82;21043;-33
2021/09/24 05:50:12;;;;;;;7.70;6.00;;;;;;;10.04;80.72;97872.34;1745217;80;21030;-33
2021/09/24 05:52:45;;;;;;;8.73;6.45;;;;;;;10.06;80.70;97875.25;1743353;80;21129;-34
2021/09/24 05:55:13;;;;;;;7.22;6.22;;;;;;;10.09;80.65;97867.69;1741957;82;20963;-33
2021/09/24 05:57:40;;;;;;;7.05;5.67;;;;;;;10.06;80.76;97859.78;1743146;82;21054;-33
2021/09/24 06:00:10;;;;;;;7.42;6.17;;;;;;;10.08;80.79;97868.27;1743564;80;21803;-34
2021/09/24 06:02:43;;;;;;;7.45;5.85;;;;;;;10.11;80.57;97855.89;1743090;82;21051;-34
2021/09/24 06:05:10;;;;;;;8.10;5.78;;;;;;;10.09;80.81;97851.44;1743181;82;21082;-33
2021/09/24 06:07:37;;;;;;;8.85;5.90;;;;;;;10.07;80.88;97845.05;1757921;80;20989;-34
2021/09/24 06:10:06;;;;;;;8.18;5.53;;;;;;;10.12;80.88;97838.48;1691076;84;21016;-34
2021/09/24 06:12:34;;;;;;;;;;;;;;;10.10;80.81;97847.57;1745760;82;21046;-34
2021/09/24 06:15:01;;;;;;;6.40;5.20;;;;;;;10.08;80.97;97832.28;1750042;82;20135;-33
2021/09/24 06:17:29;;;;;;;8.75;5.90;;;;;;;10.06;81.11;97831.92;1751015;82;21544;-34
2021/09/24 06:19:57;;;;;;;7.50;6.42;;;;;;;10.10;80.97;97828.04;1767048;80;20918;-34
2021/09/24 06:22:25;;;;;;;8.43;5.92;;;;;;;10.12;80.92;97830.36;1781811;80;20933;-34
2021/09/24 06:24:52;;;;;;;7.62;5.65;;;;;;;10.15;80.85;97829.56;1750947;81;21063;-33
2021/09/24 06:27:19;;;;;;;6.72;5.97;;;;;;;10.21;80.73;97835.58;1751218;82;21474;-33
2021/09/24 06:29:49;;;;;;;7.22;5.70;;;;;;;10.24;80.57;97827.23;1751127;82;22330;-34
2021/09/24 06:32:16;;;;;;;5.85;4.35;;;;;;;10.25;80.59;97828.78;1751084;82;21103;-34
2021/09/24 06:34:44;;;;;;;7.20;5.90;;;;;;;10.25;80.56;97828.78;1752943;79;20941;-34
2021/09/24 06:37:11;;;;;;;8.20;6.37;;;;;;;10.30;80.39;97816.19;1751203;82;21108;-34
2021/09/24 06:39:38;;;;;;;7.97;6.45;;;;;;;10.33;80.43;97816.73;1751254;82;21578;-34
2021/09/24 06:42:05;;;;;;;7.92;6.10;;;;;;;10.31;80.57;97803.58;1751264;82;21131;-34
2021/09/24 06:44:33;;;;;;;8.55;5.53;;;;;;;10.33;80.62;97816.73;1762992;80;20973;-33
2021/09/24 06:47:00;;;;;;;7.45;5.67;;;;;;;10.36;80.51;97806.48;1766823;80;21048;-34
2021/09/24 06:49:28;;;;;;;6.53;5.72;;;;;;;10.37;80.32;97808.00;1751178;81;21004;-34
2021/09/24 06:51:57;;;;;;;7.22;5.97;;;;;;;10.38;80.44;97808.20;1751389;82;21090;-34
2021/09/24 06:54:25;;;;;;;9.08;5.92;;;;;;;10.38;80.51;97813.62;1751337;81;21150;-33
2021/09/24 06:56:51;;;;;;;6.97;5.65;;;;;;;10.39;80.40;97798.33;1763027;80;20985;-34
2021/09/24 06:59:19;;;;;;;7.90;5.95;;;;;;;10.43;80.36;97798.30;1782415;80;20922;-34
2021/09/24 07:01:46;;;;;;;8.00;5.45;;;;;;;10.38;80.24;97794.66;1782065;80;21017;-34
2021/09/24 07:04:12;;;;;;;7.20;5.65;;;;;;;10.40;80.30;97788.27;1782399;80;21076;-34
2021/09/24 07:06:39;;;;;;;7.12;6.35;;;;;;;10.40;80.35;97776.85;1782421;80;21108;-34
2021/09/24 07:09:06;;;;;;;5.97;5.20;;;;;;;10.42;80.42;97792.11;1785453;80;20929;-34
2021/09/24 07:11:34;;;;;;;7.67;5.85;;;;;;;10.38;80.77;97783.82;1766179;80;21000;-34
2021/09/24 07:14:08;;;;;;;7.05;5.80;;;;;;;10.42;80.73;97794.05;1751302;80;21037;-34
2021/09/24 07:16:32;;;;;;;6.53;5.40;;;;;;;10.45;80.78;97794.62;1751192;82;21488;-33
2021/09/24 07:18:59;;;;;;;6.42;5.80;;;;;;;10.42;80.76;97786.70;1686694;85;21124;-34
2021/09/24 07:21:27;;;;;;;8.15;6.00;;;;;;;10.43;80.96;97782.05;1751232;81;20933;-34
2021/09/24 07:23:55;;;;;;;6.40;5.30;;;;;;;10.47;80.85;97776.02;1751219;82;21008;-34
2021/09/24 07:26:22;;;;;;;7.58;5.95;;;;;;;10.54;81.05;97786.83;1751572;80;21046;-34
2021/09/24 07:28:49;;;;;;;8.20;5.87;;;;;;;10.59;81.27;97786.41;1751303;82;21109;-34
2021/09/24 07:31:16;;;;;;;7.60;5.42;;;;;;;10.65;81.47;97784.05;1751297;81;21128;-34
2021/09/24 07:33:44;;;;;;;7.58;5.90;;;;;;;10.72;81.45;97782.05;1751021;81;21010;-34
2021/09/24 07:36:11;;;;;;;7.10;5.85;;;;;;;10.84;81.37;97792.41;1776920;80;20969;-34
2021/09/24 07:38:38;;;;;;;8.50;5.80;;;;;;;10.94;81.22;97784.61;1759352;80;20984;-34
2021/09/24 07:41:06;;;;;;;6.30;5.25;;;;;;;10.98;81.11;97788.84;1751252;82;21586;-34
2021/09/24 07:43:33;;;;;;;5.90;5.05;;;;;;;11.02;80.47;97778.73;1760925;80;21503;-34
2021/09/24 07:46:00;;;;;;;7.47;5.58;;;;;;;11.07;80.28;97773.45;1759675;80;21568;-34
2021/09/24 07:48:27;;;;;;;7.35;5.80;;;;;;;11.11;80.38;97774.97;1751279;82;21049;-34
2021/09/24 07:50:54;;;;;;;5.92;5.33;;;;;;;11.14;80.06;97762.53;1751165;82;21030;-34
2021/09/24 07:53:22;;;;;;;6.55;4.85;;;;;;;11.14;80.32;97767.37;1753748;80;21013;-34
2021/09/24 07:55:49;;;;;;;5.40;4.90;;;;;;;11.17;79.96;97763.88;1751195;82;21865;-34
2021/09/24 07:58:16;;;;;;;6.80;5.37;;;;;;;11.23;79.49;97766.92;1751147;82;21102;-34
2021/09/24 08:00:43;;;;;;;8.33;5.70;;;;;;;11.27;79.67;97758.16;1751136;82;20942;-34
2021/09/24 08:03:09;;;;;;;6.83;5.30;;;;;;;11.33;79.98;97771.45;1775036;80;21024;-34
2021/09/24 08:05:38;;;;;;;5.95;4.62;;;;;;;11.41;79.98;97764.80;1782246;80;20961;-34
2021/09/24 08:08:06;;;;;;;6.97;5.50;;;;;;;11.48;79.65;97770.14;1750103;80;21196;-34
2021/09/24 08:10:32;;;;;;;6.70;4.67;;;;;;;11.53;79.59;97761.56;1744659;82;21594;-34
2021/09/24 08:12:59;;;;;;;5.33;4.83;;;;;;;11.58;79.92;97761.70;1721152;82;20915;-34
2021/09/24 08:15:25;;;;;;;5.05;4.30;;;;;;;11.65;80.00;97770.55;1708467;82;20981;-34
2021/09/24 08:17:52;;;;;;;5.87;4.58;;;;;;;11.76;79.33;97769.12;1717656;83;21527;-34
2021/09/24 08:20:21;;;;;;;5.25;4.70;;;;;;;11.88;79.38;97769.16;1717895;83;21029;-34
2021/09/24 08:22:48;;;;;;;5.30;4.33;;;;;;;11.99;78.77;97765.73;1732281;82;21045;-34
2021/09/24 08:25:17;;;;;;;6.37;4.33;;;;;;;12.04;78.51;97762.56;1742448;82;21089;-34
2021/09/24 08:27:44;;;;;;;6.42;4.20;;;;;;;12.11;77.01;97771.38;1742482;82;21077;-34
2021/09/24 08:30:13;;;;;;;4.28;3.15;;;;;;;12.23;77.01;97769.30;1742592;82;21551;-34
2021/09/24 08:32:40;;;;;;;5.92;3.60;;;;;;;12.29;75.64;97768.45;1725882;82;21131;-34
2021/09/24 08:35:10;;;;;;;4.90;3.25;;;;;;;12.33;75.19;97769.16;1712873;83;21567;-34
2021/09/24 08:37:39;;;;;;;5.62;2.95;;;;;;;12.36;74.36;97765.63;1712953;83;21040;-34
2021/09/24 08:40:07;;;;;;;4.22;2.80;;;;;;;12.41;73.48;97765.16;1712861;83;20946;-34
2021/09/24 08:42:39;;;;;;;8.05;3.30;;;;;;;12.43;72.99;97768.25;1710361;82;21076;-35
2021/09/24 08:45:15;;;;;;;6.22;2.90;;;;;;;12.45;72.52;97773.26;1707401;84;21547;-34
2021/09/24 08:47:42;;;;;;;5.37;3.10;;;;;;;12.46;72.68;97764.70;1694380;82;21046;-34
2021/09/24 08:50:10;;;;;;;6.72;3.10;;;;;;;12.53;72.78;97769.28;1732657;82;20974;-34
2021/09/24 08:52:39;;;;;;;4.62;2.83;;;;;;;12.68;72.60;97761.68;1737130;82;21033;-34
2021/09/24 08:55:08;;;;;;;5.35;3.00;;;;;;;12.84;72.58;97776.75;1742495;82;21041;-34
2021/09/24 08:57:36;;;;;;;5.10;2.73;;;;;;;13.06;72.41;97763.01;1742663;82;21153;-34
2021/09/24 09:00:05;;;;;;;7.12;3.62;;;;;;;13.32;72.46;97764.90;1742468;82;21075;-35
2021/09/24 09:03:05;;;;;;;4.40;2.98;;;;;;;13.53;71.49;97761.63;1729709;82;20955;-34
2021/09/24 09:05:45;;;;;;;5.72;3.42;;;;;;;13.62;70.62;97787.70;1712803;83;21007;-34
2021/09/24 09:08:27;;;;;;;4.20;2.90;;;;;;;13.69;70.48;97776.10;1712684;83;21063;-35
2021/09/24 09:11:00;;;;;;;6.30;3.17;;;;;;;13.81;69.52;97774.69;1712840;83;21142;-35
2021/09/24 09:13:39;;;;;;;7.83;3.25;;;;;;;13.93;69.81;97773.48;1736746;82;21012;-34
2021/09/24 09:16:25;;;;;;;4.67;2.70;;;;;;;14.08;67.94;97775.33;1737307;82;21539;-35
2021/09/24 09:19:11;;;;;;;4.75;2.72;;;;;;;14.15;67.38;97767.58;1737664;82;21061;-34
2021/09/24 09:21:47;;;;;;;4.75;2.65;;;;;;;14.18;64.88;97764.03;1708166;82;21493;-35
2021/09/24 09:24:22;;;;;;;4.53;2.52;;;;;;;14.12;63.45;97782.84;1701554;84;21147;-35
2021/09/24 09:27:09;;;;;;;5.40;2.50;;;;;;;14.00;63.46;97775.28;1701743;84;20993;-35
2021/09/24 09:29:36;;;;;;;5.60;2.58;;;;;;;13.85;63.85;97778.11;1701826;83;21030;-35
2021/09/24 09:32:07;;;;;;;7.67;2.17;;;;;;;13.75;64.86;97778.49;1709898;84;21540;-35
2021/09/24 09:34:36;;;;;;;5.83;2.30;;;;;;;13.80;65.67;97770.42;1709174;83;21062;-35
2021/09/24 09:37:19;;;;;;;7.22;2.65;;;;;;;13.94;64.82;97789.98;1707573;84;21183;-35
2021/09/24 09:40:08;;;;;;;8.60;2.62;;;;;;;14.11;64.88;97788.70;1708314;82;21576;-35
2021/09/24 09:42:38;;;;;;;7.45;2.30;;;;;;;14.27;64.26;97790.89;1737049;82;21093;-35
2021/09/24 09:45:08;;;;;;;4.45;2.30;;;;;;;14.44;62.86;97787.62;1673188;85;21817;-35
2021/09/24 09:47:37;;;;;;;7.47;2.17;;;;;;;14.60;59.85;97796.44;1653976;85;21113;-35
2021/09/24 09:50:14;;;;;;;3.40;1.60;;;;;;;14.72;59.55;97784.26;1708378;82;21141;-35
2021/09/24 09:53:12;;;;;;;4.92;2.02;;;;;;;14.93;58.60;97792.55;1701806;84;21572;-35
2021/09/24 09:55:44;;;;;;;6.33;1.60;;;;;;;15.12;57.85;97798.52;1702093;84;21544;-35
2021/09/24 09:58:11;;;;;;;5.37;1.85;;;;;;;15.25;56.43;97800.58;1721889;82;21049;-35
2021/09/24 10:01:00;;;;;;;5.55;1.45;;;;;;;15.27;56.70;97811.82;1733983;82;21551;-35
2021/09/24 10:03:42;;;;;;;6.87;1.92;;;;;;;15.18;54.77;97810.47;1742340;82;21595;-35
2021/09/24 10:06:24;;;;;;;5.75;1.62;;;;;;;15.05;55.74;97808.86;1738887;82;21041;-35
2021/09/24 10:08:57;;;;;;;4.50;1.40;;;;;;;14.92;55.87;97822.39;1742157;82;21048;-35
2021/09/24 10:11:37;;;;;;;7.25;1.85;;;;;;;14.78;55.37;97808.48;1714960;82;21522;-35
2021/09/24 10:14:10;;;;;;;8.18;2.05;;;;;;;14.78;56.36;97806.34;1701783;84;21109;-35
2021/09/24 10:16:43;;;;;;;4.80;2.00;;;;;;;14.89;56.88;97802.79;1709314;84;21086;-35
2021/09/24 10:19:09;;;;;;;7.92;2.12;;;;;;;15.07;56.27;97804.49;1709370;83;21054;-35
2021/09/24 10:21:37;;;;;;;7.00;2.42;;;;;;;15.20;56.12;97809.42;1735951;82;20962;-35
2021/09/24 10:24:05;;;;;;;4.40;1.80;;;;;;;15.19;54.58;97809.28;1744295;82;21033;-35
2021/09/24 10:26:43;;;;;;;5.65;1.47;;;;;;;15.02;54.96;97806.37;1744641;82;21065;-35
2021/09/24 10:30:24;;;;;;;5.70;1.60;;;;;;;14.77;55.19;97808.31;1830747;76;22600;-34
2021/09/24 10:32:58;;;;;;;6.35;2.05;;;;;;;14.64;56.87;97817.58;1783996;80;21021;-34
2021/09/24 10:35:52;;;;;;;6.22;1.90;;;;;;;14.61;57.56;97811.03;1785510;80;23337;-34
2021/09/24 10:38:25;;;;;;;5.80;1.85;;;;;;;14.60;57.81;97812.80;1786281;80;21515;-34
2021/09/24 10:41:08;;;;;;;4.72;2.35;;;;;;;14.53;57.94;97820.53;1794513;78;21530;-34
2021/09/24 10:43:52;;;;;;;6.67;2.05;;;;;;;14.54;58.08;97822.67;1802864;79;21016;-34
2021/09/24 10:46:32;;;;;;;5.75;1.80;;;;;;;14.66;59.51;97813.84;1803213;79;20969;-34
2021/09/24 10:49:19;;;;;;;4.78;1.62;;;;;;;14.83;58.16;97820.08;1797049;79;21079;-34
2021/09/24 10:51:51;;;;;;;4.78;1.52;;;;;;;14.84;57.71;97831.94;1801719;78;21460;-34
2021/09/24 10:54:21;;;;;;;4.95;1.50;;;;;;;14.66;60.60;97842.48;1801204;79;20918;-34
2021/09/24 10:57:06;;;;;;;2.08;1.42;;;;;;;14.32;63.13;97846.28;1796864;79;21508;-34
2021/09/24 10:59:33;;;;;;;6.17;1.85;;;;;;;14.08;64.98;97848.91;1802264;79;21021;-35
2021/09/24 11:02:22;;;;;;;6.00;1.90;;;;;;;14.01;65.63;97846.90;1776265;79;21127;-35
2021/09/24 11:04:50;;;;;;;5.15;1.90;;;;;;;14.13;66.34;97849.78;1746473;81;21611;-35
2021/09/24 11:07:31;;;;;;;4.53;1.80;;;;;;;14.41;66.31;97850.42;1771215;81;21084;-35
2021/09/24 11:09:58;;;;;;;5.92;1.92;;;;;;;14.69;62.49;97841.63;1770901;79;21009;-35
2021/09/24 11:12:27;;;;;;;4.80;1.50;;;;;;;14.89;61.19;97842.95;1803010;79;21017;-35
2021/09/24 11:15:09;;;;;;;3.33;1.32;;;;;;;14.97;60.36;97840.98;1802816;79;20973;-35
2021/09/24 11:17:46;;;;;;;3.58;1.25;;;;;;;15.01;60.53;97836.21;1802637;79;20921;-35
2021/09/24 11:20:35;;;;;;;3.37;1.62;;;;;;;15.13;59.03;97838.28;1803400;78;21008;-35
2021/09/24 11:23:36;;;;;;;3.80;1.50;;;;;;;15.35;58.23;97826.23;1803124;79;21362;-35
2021/09/24 11:26:14;;;;;;;3.40;1.72;;;;;;;15.43;57.33;97839.13;1803097;79;21064;-35
2021/09/24 11:28:43;;;;;;;4.78;1.80;;;;;;;15.43;57.80;97842.63;1801903;79;23356;-35
2021/09/24 11:31:12;;;;;;;4.50;1.55;;;;;;;15.43;57.62;97841.86;1785487;79;20990;-35
2021/09/24 11:33:48;;;;;;;6.08;1.67;;;;;;;15.33;56.83;97849.70;1769301;81;20977;-35
2021/09/24 11:36:56;;;;;;;3.47;1.50;;;;;;;15.13;56.60;97851.92;1782747;80;21516;-35
2021/09/24 11:39:23;;;;;;;4.78;1.32;;;;;;;14.90;57.17;97846.63;1716408;83;21314;-35
2021/09/24 11:41:49;;;;;;;4.97;1.50;;;;;;;14.66;57.16;97858.85;1716181;83;21109;-35
2021/09/24 11:44:16;;;;;;;7.92;1.72;;;;;;;14.53;58.07;97857.95;1770515;78;20980;-35
2021/09/24 11:46:43;;;;;;;4.47;1.47;;;;;;;14.41;58.92;97874.95;1835892;78;20973;-35